createdAt,value
2023-05-19T00:02:56.304Z,99533.63
2023-05-19T00:05:59.193Z,99549.22
2023-05-19T00:09:05.567Z,99545.38
2023-05-19T00:12:08.110Z,99541.41
2023-05-19T00:15:10.747Z,99548.03
2023-05-19T00:18:14.230Z,99543.22
2023-05-19T00:21:16.957Z,99541.31
2023-05-19T00:24:18.921Z,99551.03
2023-05-19T00:27:20.992Z,99553.69
2023-05-19T00:30:23.142Z,99556.13
2023-05-19T00:33:25.060Z,99560.66
2023-05-19T00:36:27.111Z,99554.72
2023-05-19T00:39:29.053Z,99563.59
2023-05-19T00:42:31.062Z,99566.03
2023-05-19T00:45:33.171Z,99569.53
2023-05-19T00:48:35.048Z,99567.59
2023-05-19T00:51:46.296Z,99555.88
2023-05-19T00:54:49.368Z,99561.19
2023-05-19T00:57:51.502Z,99556.38
2023-05-19T01:00:53.469Z,99551.09
2023-05-19T01:03:59.211Z,99554.38
2023-05-19T01:07:01.348Z,99550.38
2023-05-19T01:10:03.631Z,99550.38
2023-05-19T01:13:06.672Z,99554.38
2023-05-19T01:16:42.726Z,99557.13
2023-05-19T01:20:16.946Z,99554.91
2023-05-19T01:23:57.161Z,99553.28
2023-05-19T01:27:24.096Z,99552.06
2023-05-19T01:30:33.700Z,99553.56
2023-05-19T01:33:36.520Z,99551.06
2023-05-19T01:36:41.041Z,99554.59
2023-05-19T01:39:44.972Z,99550.78
2023-05-19T01:42:47.338Z,99551.56
2023-05-19T01:45:49.472Z,99553.59
2023-05-19T01:48:52.761Z,99550.06
2023-05-19T01:51:54.983Z,99557.72
2023-05-19T01:54:57.342Z,99560.88
2023-05-19T01:57:59.195Z,99557.78
2023-05-19T02:01:07.026Z,99556.56
2023-05-19T02:04:15.087Z,99559.91
2023-05-19T02:07:58.563Z,99554.31
2023-05-19T02:11:09.638Z,99558.31
2023-05-19T02:14:29.859Z,99559.34
2023-05-19T02:17:36.748Z,99559.53
2023-05-19T02:20:40.217Z,99564.94
2023-05-19T02:23:42.505Z,99563.72
2023-05-19T02:26:44.487Z,99566.88
2023-05-19T02:29:46.414Z,99566.03
2023-05-19T02:32:48.436Z,99568.16
2023-05-19T02:35:50.972Z,99569.44
2023-05-19T02:38:52.977Z,99563.28
2023-05-19T02:41:54.892Z,99568.09
2023-05-19T02:44:56.954Z,99570.88
2023-05-19T02:47:59.659Z,99570.28
2023-05-19T02:51:01.668Z,99567.22
2023-05-19T02:54:03.792Z,99569.16
2023-05-19T02:57:06.855Z,99576.06
2023-05-19T03:00:09.557Z,99568.88
2023-05-19T03:03:11.524Z,99576.19
2023-05-19T03:06:14.343Z,99578.75
2023-05-19T03:09:16.363Z,99569.03
2023-05-19T03:12:18.316Z,99578.22
2023-05-19T03:15:22.989Z,99579.50
2023-05-19T03:18:26.506Z,99586.19
2023-05-19T03:21:28.680Z,99585.78
2023-05-19T03:24:30.935Z,99584.97
2023-05-19T03:27:32.941Z,99589.38
2023-05-19T03:30:34.928Z,99592.34
2023-05-19T03:33:43.095Z,99601.97
2023-05-19T03:36:45.299Z,99599.75
2023-05-19T03:39:51.213Z,99600.47
2023-05-19T03:42:54.626Z,99601.00
2023-05-19T03:45:57.075Z,99593.81
2023-05-19T03:49:17.678Z,99597.03
2023-05-19T03:52:38.745Z,99594.81
2023-05-19T03:55:57.118Z,99584.44
2023-05-19T03:58:59.561Z,99592.38
2023-05-19T04:02:01.511Z,99591.09
2023-05-19T04:05:05.231Z,99592.50
2023-05-19T04:08:07.198Z,99599.25
2023-05-19T04:11:09.248Z,99590.53
2023-05-19T04:14:11.186Z,99601.22
2023-05-19T04:17:13.142Z,99594.91
2023-05-19T04:20:15.153Z,99595.06
2023-05-19T04:23:17.131Z,99589.28
2023-05-19T04:26:21.778Z,99602.72
2023-05-19T04:29:24.342Z,99596.28
2023-05-19T04:32:26.327Z,99598.63
2023-05-19T04:35:30.240Z,99594.78
2023-05-19T04:38:35.106Z,99594.75
2023-05-19T04:41:40.344Z,99599.13
2023-05-19T04:44:42.647Z,99593.06
2023-05-19T04:47:47.023Z,99604.47
2023-05-19T04:50:49.628Z,99605.94
2023-05-19T04:53:52.728Z,99601.41
2023-05-19T04:56:55.351Z,99595.13
2023-05-19T05:00:05.187Z,99605.34
2023-05-19T05:03:14.742Z,99597.53
2023-05-19T05:06:16.792Z,99597.97
2023-05-19T05:09:20.007Z,99598.75
2023-05-19T05:12:22.615Z,99600.94
2023-05-19T05:15:25.411Z,99600.22
2023-05-19T05:18:27.504Z,99605.38
2023-05-19T05:21:29.886Z,99601.75
2023-05-19T05:24:33.004Z,99604.53
2023-05-19T05:27:38.332Z,99602.03
2023-05-19T05:30:42.184Z,99597.06
2023-05-19T05:33:45.016Z,99604.09
2023-05-19T05:36:48.155Z,99606.94
2023-05-19T05:39:50.393Z,99611.22
2023-05-19T05:42:52.418Z,99613.75
2023-05-19T05:45:57.510Z,99619.31
2023-05-19T05:49:00.026Z,99617.66
2023-05-19T05:52:06.180Z,99615.22
2023-05-19T05:55:17.528Z,99613.38
2023-05-19T05:58:21.357Z,99611.75
2023-05-19T06:01:24.936Z,99612.31
2023-05-19T06:04:28.575Z,99605.69
2023-05-19T06:07:30.796Z,99610.09
2023-05-19T06:10:33.693Z,99609.28
2023-05-19T06:13:36.962Z,99610.94
2023-05-19T06:16:42.049Z,99602.09
2023-05-19T06:19:44.563Z,99620.56
2023-05-19T06:22:46.550Z,99615.22
2023-05-19T06:25:49.828Z,99614.31
2023-05-19T06:28:52.398Z,99620.34
2023-05-19T06:31:54.999Z,99618.13
2023-05-19T06:34:57.127Z,99616.66
2023-05-19T06:38:00.306Z,99617.84
2023-05-19T06:41:02.232Z,99616.75
2023-05-19T06:44:07.022Z,99620.72
2023-05-19T06:47:10.214Z,99616.63
2023-05-19T06:50:13.246Z,99620.09
2023-05-19T06:53:19.721Z,99624.41
2023-05-19T06:56:23.000Z,99618.63
2023-05-19T06:59:26.017Z,99619.84
2023-05-19T07:02:28.206Z,99623.56
2023-05-19T07:05:30.618Z,99616.53
2023-05-19T07:08:37.190Z,99621.56
2023-05-19T07:11:40.963Z,99621.56
2023-05-19T07:14:45.051Z,99625.38
2023-05-19T07:17:48.066Z,99629.34
2023-05-19T07:20:52.316Z,99634.41
2023-05-19T07:23:55.829Z,99617.44
2023-05-19T07:26:58.377Z,99625.72
2023-05-19T07:30:00.271Z,99619.41
2023-05-19T07:33:02.204Z,99619.56
2023-05-19T07:36:05.984Z,99624.53
2023-05-19T07:39:08.027Z,99618.72
2023-05-19T07:42:10.249Z,99623.22
2023-05-19T07:45:12.137Z,99614.94
2023-05-19T07:48:14.244Z,99622.38
2023-05-19T07:51:16.306Z,99619.81
2023-05-19T07:54:18.527Z,99621.63
2023-05-19T07:57:20.440Z,99619.81
2023-05-19T08:00:22.737Z,99614.34
2023-05-19T08:03:25.847Z,99612.03
2023-05-19T08:06:30.106Z,99610.97
2023-05-19T08:09:32.094Z,99616.34
2023-05-19T08:12:34.029Z,99614.19
2023-05-19T08:15:35.964Z,99614.63
2023-05-19T08:18:37.916Z,99623.78
2023-05-19T08:21:39.922Z,99616.91
2023-05-19T08:24:43.363Z,99626.66
2023-05-19T08:27:45.764Z,99613.34
2023-05-19T08:30:47.751Z,99612.19
2023-05-19T08:33:49.656Z,99613.25
2023-05-19T08:36:51.626Z,99610.16
2023-05-19T08:39:53.496Z,99617.13
2023-05-19T08:42:55.477Z,99618.28
2023-05-19T08:46:00.802Z,99616.78
2023-05-19T08:49:10.378Z,99609.06
2023-05-19T08:52:33.465Z,99605.88
2023-05-19T08:55:53.397Z,99605.16
2023-05-19T08:59:00.402Z,99608.38
2023-05-19T09:02:04.182Z,99612.84
2023-05-19T09:05:07.421Z,99601.50
2023-05-19T09:08:09.521Z,99606.72
2023-05-19T09:11:11.896Z,99600.03
2023-05-19T09:14:13.862Z,99597.06
2023-05-19T09:17:15.977Z,99604.13
2023-05-19T09:20:17.962Z,99597.75
2023-05-19T09:23:21.057Z,99608.38
2023-05-19T09:26:23.575Z,99602.03
2023-05-19T09:29:28.761Z,99607.13
2023-05-19T09:32:31.601Z,99601.94
2023-05-19T09:35:35.249Z,99608.84
2023-05-19T09:38:38.935Z,99603.34
2023-05-19T09:41:41.232Z,99608.91
2023-05-19T09:44:43.814Z,99599.00
2023-05-19T09:47:45.750Z,99605.59
2023-05-19T09:50:49.398Z,99601.75
2023-05-19T09:53:53.103Z,99599.84
2023-05-19T09:57:03.685Z,99600.66
2023-05-19T10:00:12.079Z,99596.88
2023-05-19T10:03:16.573Z,99598.25
2023-05-19T10:06:19.868Z,99600.75
2023-05-19T10:09:25.988Z,99595.53
2023-05-19T10:12:28.304Z,99602.38
2023-05-19T10:15:31.004Z,99604.59
2023-05-19T10:18:33.890Z,99601.28
2023-05-19T10:21:36.631Z,99602.94
2023-05-19T10:24:38.505Z,99598.50
2023-05-19T10:27:41.847Z,99603.16
2023-05-19T10:30:47.902Z,99599.81
2023-05-19T10:34:07.996Z,99607.25
2023-05-19T10:37:41.873Z,99612.44
2023-05-19T10:40:51.884Z,99602.47
2023-05-19T10:44:09.690Z,99611.50
2023-05-19T10:47:12.351Z,99604.59
2023-05-19T10:50:15.762Z,99615.78
2023-05-19T10:53:19.519Z,99614.91
2023-05-19T10:56:36.438Z,99619.78
2023-05-19T10:59:39.432Z,99618.09
2023-05-19T11:02:44.420Z,99623.28
2023-05-19T11:05:46.716Z,99624.63
2023-05-19T11:08:53.838Z,99626.91
2023-05-19T11:11:55.777Z,99631.28
2023-05-19T11:14:59.499Z,99629.19
2023-05-19T11:18:02.409Z,99628.31
2023-05-19T11:21:04.517Z,99633.19
2023-05-19T11:24:09.073Z,99629.50
2023-05-19T11:27:20.892Z,99634.75
2023-05-19T11:30:23.274Z,99630.03
2023-05-19T11:33:29.351Z,99634.38
2023-05-19T11:36:31.925Z,99629.41
2023-05-19T11:39:34.072Z,99633.81
2023-05-19T11:42:37.416Z,99634.56
2023-05-19T11:45:39.558Z,99637.06
2023-05-19T11:48:41.742Z,99640.88
2023-05-19T11:51:45.443Z,99631.91
2023-05-19T11:54:48.554Z,99629.78
2023-05-19T11:58:04.405Z,99629.31
2023-05-19T12:01:07.030Z,99631.88
2023-05-19T12:04:12.243Z,99635.81
2023-05-19T12:07:23.340Z,99629.06
2023-05-19T12:10:27.367Z,99630.88
2023-05-19T12:13:30.530Z,99616.09
2023-05-19T12:16:35.745Z,99617.53
2023-05-19T12:19:37.953Z,99615.13
2023-05-19T12:22:40.104Z,99603.66
2023-05-19T12:25:42.074Z,99610.84
2023-05-19T12:28:45.358Z,99601.50
2023-05-19T12:31:47.638Z,99598.53
2023-05-19T12:34:50.216Z,99603.22
2023-05-19T12:37:52.224Z,99600.50
2023-05-19T12:40:54.273Z,99598.34
2023-05-19T12:44:17.763Z,99596.56
2023-05-19T12:47:20.506Z,99592.47
2023-05-19T12:50:22.403Z,99589.44
2023-05-19T12:53:26.607Z,99599.38
2023-05-19T12:56:29.011Z,99591.84
2023-05-19T12:59:38.877Z,99594.84
2023-05-19T13:02:58.076Z,99600.28
2023-05-19T13:06:00.148Z,99595.59
2023-05-19T13:09:02.015Z,99592.56
2023-05-19T13:12:04.866Z,99581.38
2023-05-19T13:15:07.371Z,99575.47
2023-05-19T13:18:13.704Z,99576.00
2023-05-19T13:21:15.966Z,99577.75
2023-05-19T13:24:17.922Z,99573.13
2023-05-19T13:27:19.790Z,99573.50
2023-05-19T13:30:22.134Z,99573.56
2023-05-19T13:33:24.069Z,99573.59
2023-05-19T13:36:26.629Z,99570.59
2023-05-19T13:39:28.616Z,99572.78
2023-05-19T13:42:31.816Z,99575.78
2023-05-19T13:45:33.858Z,99563.84
2023-05-19T13:48:35.861Z,99570.69
2023-05-19T13:51:37.951Z,99573.38
2023-05-19T13:54:39.719Z,99578.09
2023-05-19T13:57:43.434Z,99573.56
2023-05-19T14:00:46.086Z,99571.16
2023-05-19T14:03:48.318Z,99572.81
2023-05-19T14:06:50.483Z,99570.56
2023-05-19T14:09:52.688Z,99573.84
2023-05-19T14:13:29.046Z,99562.03
2023-05-19T14:16:17.448Z,99564.81
2023-05-19T14:19:19.522Z,99568.97
2023-05-19T14:22:21.435Z,99568.97
2023-05-19T14:25:23.318Z,99554.09
2023-05-19T14:28:25.246Z,99559.63
2023-05-19T14:31:27.006Z,99563.72
2023-05-19T14:34:29.714Z,99561.19
2023-05-19T14:37:32.382Z,99557.91
2023-05-19T14:40:36.969Z,99559.31
2023-05-19T14:43:38.883Z,99561.56
2023-05-19T14:46:40.716Z,99562.41
2023-05-19T14:49:42.536Z,99565.69
2023-05-19T14:52:44.526Z,99572.59
2023-05-19T14:55:51.867Z,99564.63
2023-05-19T14:58:53.742Z,99563.00
2023-05-19T15:01:55.552Z,99561.63
2023-05-19T15:04:57.338Z,99563.34
2023-05-19T15:07:59.197Z,99573.06
2023-05-19T15:11:00.894Z,99568.38
2023-05-19T15:14:02.961Z,99572.53
2023-05-19T15:17:04.853Z,99574.44
2023-05-19T15:20:07.405Z,99571.91
2023-05-19T15:23:09.322Z,99578.78
2023-05-19T15:26:11.268Z,99570.59
2023-05-19T15:29:13.156Z,99578.06
2023-05-19T15:32:14.882Z,99578.41
2023-05-19T15:35:16.868Z,99581.97
2023-05-19T15:38:19.194Z,99578.69
2023-05-19T15:41:21.796Z,99586.41
2023-05-19T15:44:23.597Z,99585.28
2023-05-19T15:47:26.035Z,99581.97
2023-05-19T15:50:27.951Z,99595.94
2023-05-19T15:53:29.775Z,99593.13
2023-05-19T15:56:31.606Z,99595.31
2023-05-19T15:59:33.524Z,99599.91
2023-05-19T16:02:36.006Z,99597.88
2023-05-19T16:05:37.911Z,99600.56
2023-05-19T16:08:39.843Z,99592.53
2023-05-19T16:11:41.530Z,99606.16
2023-05-19T16:14:43.405Z,99604.16
2023-05-19T16:17:45.330Z,99602.97
2023-05-19T16:20:47.170Z,99604.81
2023-05-19T16:23:49.098Z,99612.41
2023-05-19T16:26:53.583Z,99610.69
2023-05-19T16:29:55.574Z,99616.09
2023-05-19T16:32:57.525Z,99612.69
2023-05-19T16:36:00.034Z,99615.22
2023-05-19T16:39:01.853Z,99621.06
2023-05-19T16:42:06.716Z,99622.03
2023-05-19T16:45:09.102Z,99617.44
2023-05-19T16:48:11.355Z,99618.88
2023-05-19T16:51:13.253Z,99615.91
2023-05-19T16:54:15.067Z,99618.94
2023-05-19T16:57:16.961Z,99620.56
2023-05-19T17:00:19.196Z,99614.72
2023-05-19T17:03:21.056Z,99618.38
2023-05-19T17:06:22.900Z,99630.69
2023-05-19T17:09:27.431Z,99618.31
2023-05-19T17:12:29.327Z,99623.34
2023-05-19T17:15:31.697Z,99629.59
2023-05-19T17:18:33.560Z,99635.72
2023-05-19T17:21:35.383Z,99629.31
2023-05-19T17:24:37.233Z,99624.78
2023-05-19T17:27:39.289Z,99630.16
2023-05-19T17:30:41.459Z,99628.72
2023-05-19T17:33:43.320Z,99624.88
2023-05-19T17:36:45.305Z,99628.41
2023-05-19T17:39:47.211Z,99631.94
2023-05-19T17:42:49.064Z,99635.94
2023-05-19T17:45:51.003Z,99632.56
2023-05-19T17:48:52.885Z,99632.38
2023-05-19T17:51:55.084Z,99649.97
2023-05-19T17:54:57.300Z,99651.53
2023-05-19T17:57:59.212Z,99653.22
2023-05-19T18:01:01.384Z,99652.91
2023-05-19T18:04:03.892Z,99655.22
2023-05-19T18:07:09.024Z,99653.91
2023-05-19T18:10:11.840Z,99657.53
2023-05-19T18:13:14.380Z,99659.94
2023-05-19T18:16:16.580Z,99668.63
2023-05-19T18:19:18.513Z,99661.16
2023-05-19T18:22:20.690Z,99668.38
2023-05-19T18:25:25.353Z,99666.59
2023-05-19T18:28:27.176Z,99663.31
2023-05-19T18:31:29.203Z,99666.28
2023-05-19T18:34:31.172Z,99664.66
2023-05-19T18:37:34.586Z,99663.25
2023-05-19T18:40:36.586Z,99670.56
2023-05-19T18:43:39.141Z,99661.56
2023-05-19T18:46:41.245Z,99660.75
2023-05-19T18:49:43.159Z,99656.97
2023-05-19T18:52:44.993Z,99664.47
2023-05-19T18:55:46.848Z,99665.31
2023-05-19T18:58:48.716Z,99664.88
2023-05-19T19:01:50.671Z,99668.22
2023-05-19T19:04:52.577Z,99665.28
2023-05-19T19:07:54.545Z,99667.16
2023-05-19T19:11:00.228Z,99668.00
2023-05-19T19:14:02.379Z,99661.72
2023-05-19T19:17:04.389Z,99668.44
2023-05-19T19:20:09.648Z,99666.97
2023-05-19T19:23:11.794Z,99666.56
2023-05-19T19:26:13.582Z,99666.41
2023-05-19T19:29:16.746Z,99671.63
2023-05-19T19:32:18.660Z,99662.84
2023-05-19T19:35:20.930Z,99666.84
2023-05-19T19:38:22.803Z,99672.66
2023-05-19T19:41:26.201Z,99673.53
2023-05-19T19:44:27.994Z,99668.53
2023-05-19T19:47:29.905Z,99678.16
2023-05-19T19:50:32.933Z,99683.63
2023-05-19T19:53:34.903Z,99683.44
2023-05-19T19:56:36.825Z,99681.16
2023-05-19T19:59:38.694Z,99678.69
2023-05-19T20:02:55.266Z,99683.31
2023-05-19T20:06:03.127Z,99682.06
2023-05-19T20:09:05.310Z,99676.84
2023-05-19T20:12:07.425Z,99678.13
2023-05-19T20:15:09.812Z,99675.66
2023-05-19T20:18:12.157Z,99677.53
2023-05-19T20:21:14.056Z,99688.19
2023-05-19T20:24:15.958Z,99683.56
2023-05-19T20:27:17.885Z,99683.78
2023-05-19T20:30:19.911Z,99693.81
2023-05-19T20:33:21.789Z,99698.41
2023-05-19T20:36:23.603Z,99702.38
2023-05-19T20:39:25.587Z,99700.72
2023-05-19T20:42:27.429Z,99710.13
2023-05-19T20:45:29.349Z,99709.47
2023-05-19T20:48:31.597Z,99702.56
2023-05-19T20:51:33.528Z,99710.09
2023-05-19T20:54:35.588Z,99704.66
2023-05-19T20:57:37.529Z,99698.56
2023-05-19T21:00:39.448Z,99708.81
2023-05-19T21:03:41.369Z,99711.31
2023-05-19T21:06:43.338Z,99710.47
2023-05-19T21:09:46.688Z,99709.84
2023-05-19T21:12:48.757Z,99705.69
2023-05-19T21:15:50.774Z,99706.94
2023-05-19T21:18:52.771Z,99700.03
2023-05-19T21:21:54.584Z,99701.31
2023-05-19T21:24:57.050Z,99699.84
2023-05-19T21:27:58.996Z,99705.06
2023-05-19T21:31:00.966Z,99699.44
2023-05-19T21:34:04.234Z,99700.25
2023-05-19T21:37:06.057Z,99695.25
2023-05-19T21:40:08.516Z,99692.75
2023-05-19T21:43:11.163Z,99699.66
2023-05-19T21:46:13.175Z,99692.75
2023-05-19T21:49:15.131Z,99700.50
2023-05-19T21:52:16.929Z,99696.13
2023-05-19T21:55:18.840Z,99713.06
2023-05-19T21:58:20.743Z,99709.28
2023-05-19T22:01:22.724Z,99712.00
2023-05-19T22:04:24.685Z,99718.66
2023-05-19T22:07:27.098Z,99722.00
2023-05-19T22:10:29.061Z,99714.50
2023-05-19T22:13:31.985Z,99714.50
2023-05-19T22:16:35.207Z,99716.59
2023-05-19T22:19:37.489Z,99717.63
2023-05-19T22:22:39.377Z,99714.28
2023-05-19T22:25:41.550Z,99721.59
2023-05-19T22:28:43.472Z,99715.75
2023-05-19T22:31:45.397Z,99727.66
2023-05-19T22:34:47.281Z,99733.06
2023-05-19T22:37:49.237Z,99733.69
2023-05-19T22:40:51.217Z,99720.97
2023-05-19T22:43:53.022Z,99733.25
2023-05-19T22:46:54.942Z,99733.03
2023-05-19T22:49:57.258Z,99720.50
2023-05-19T22:52:59.270Z,99725.50
2023-05-19T22:56:01.170Z,99722.56
2023-05-19T22:59:03.016Z,99724.03
2023-05-19T23:02:05.810Z,99722.34
2023-05-19T23:05:08.352Z,99734.00
2023-05-19T23:08:10.170Z,99722.53
2023-05-19T23:11:12.111Z,99731.69
2023-05-19T23:14:13.985Z,99729.59
2023-05-19T23:17:15.765Z,99734.19
2023-05-19T23:20:17.685Z,99739.97
2023-05-19T23:23:19.564Z,99735.81
2023-05-19T23:26:21.719Z,99729.75
2023-05-19T23:29:23.622Z,99728.28
2023-05-19T23:32:25.577Z,99727.44
2023-05-19T23:35:27.505Z,99724.50
2023-05-19T23:38:29.381Z,99726.34
2023-05-19T23:41:31.534Z,99718.81
2023-05-19T23:44:33.339Z,99724.84
2023-05-19T23:47:35.201Z,99729.41
2023-05-19T23:50:37.026Z,99725.41
2023-05-19T23:53:39.187Z,99724.34
2023-05-19T23:56:41.088Z,99735.38
2023-05-19T23:59:43.166Z,99726.19
